»·PEaware :: N228Q 55S-63S

N228Q :: 55S-63S

FLIGHT INFORMATION

Flight Status: Arrived
Operator: Privately registered:
United States
More flights under this callsign
Pilot: Chuck O. (4337)
Aircraft: BEECH AIRCRAFT BONANZA
(BE35)
More flights by this aircraft type
Origin: 55S Packwood
United States
Destination: 63S Colville Mun
United States
More flights between these airports :: More routes between these airports
Route: YKM MWH
File this flight plan on PilotEdge
Remarks: ABC WA Leg 32
Altitude:
(Current/Filed)
9,500ft
Speed:
(Current/Filed)
155kts
Departed: 01-Aug-20 04:08 PM
Arrived: 01-Aug-20 05:30 PM
Distance/Time
Traveled:
193nm/1:22
Distance/Time
To Go:
Arrived

Flight Plot

Page will automatically refresh every two minutes.

Flight plan parsing failed; only flown route is shown


Map Options




Map Legend


Flown Route
Filed Route
Departure Airport
Arrival Airport
Navaid (VOR, NDB)
Fix

Horizontal Profiles

Position Reports

Time Latitude Longitude Heading Altitude Ground
Speed
01-Aug-20 16:01 46.605621 -121.676001 121 1056ft 0kts
01-Aug-20 16:03 46.605620 -121.675998 121 1056ft 0kts
01-Aug-20 16:03 46.605619 -121.675995 121 1056ft 0kts
01-Aug-20 16:04 46.605618 -121.675993 121 1056ft 0kts
01-Aug-20 16:05 46.605270 -121.677111 215 1056ft 13kts
01-Aug-20 16:06 46.601617 -121.680150 5 1056ft 4kts
01-Aug-20 16:07 46.612812 -121.671149 38 1402ft 85kts
01-Aug-20 16:08 46.634527 -121.649162 32 2526ft 99kts
01-Aug-20 16:09 46.648478 -121.621684 163 3558ft 111kts
01-Aug-20 16:10 46.624416 -121.647328 220 4661ft 108kts
01-Aug-20 16:11 46.600889 -121.675227 220 5786ft 109kts
01-Aug-20 16:12 46.577018 -121.663267 133 6775ft 114kts
01-Aug-20 16:13 46.576013 -121.617917 77 7596ft 121kts
01-Aug-20 16:14 46.578340 -121.556732 90 7558ft 169kts
01-Aug-20 16:15 46.578093 -121.486539 90 7513ft 175kts
01-Aug-20 16:16 46.577861 -121.416769 90 7792ft 165kts
01-Aug-20 16:17 46.577640 -121.354897 90 8624ft 146kts
01-Aug-20 16:18 46.577389 -121.296891 91 9306ft 155kts
01-Aug-20 16:19 46.576991 -121.222646 90 8412ft 197kts
01-Aug-20 16:20 46.576532 -121.141566 90 7542ft 201kts
01-Aug-20 16:21 46.576048 -121.064751 91 7379ft 180kts
01-Aug-20 16:22 46.575550 -120.993089 90 7370ft 176kts
01-Aug-20 16:23 46.574994 -120.921142 90 7365ft 179kts
01-Aug-20 16:24 46.574388 -120.848203 90 7358ft 182kts
01-Aug-20 16:25 46.573745 -120.775248 91 7353ft 179kts
01-Aug-20 16:26 46.573060 -120.703467 91 7345ft 175kts
01-Aug-20 16:27 46.572353 -120.633644 91 7341ft 171kts
01-Aug-20 16:28 46.571626 -120.565394 91 7496ft 169kts
01-Aug-20 16:29 46.570838 -120.496110 91 7500ft 173kts
01-Aug-20 16:30 46.578743 -120.429478 51 7496ft 171kts
01-Aug-20 16:31 46.609411 -120.376605 49 7495ft 171kts
01-Aug-20 16:32 46.640056 -120.323808 49 7495ft 170kts
01-Aug-20 16:33 46.670613 -120.270869 49 7498ft 171kts
01-Aug-20 16:34 46.700399 -120.219141 49 7834ft 158kts
01-Aug-20 16:35 46.727813 -120.171489 49 8327ft 149kts
01-Aug-20 16:36 46.754272 -120.125391 49 8972ft 148kts
01-Aug-20 16:37 46.783678 -120.073994 49 8726ft 185kts
01-Aug-20 16:38 46.817002 -120.015614 49 8118ft 193kts
01-Aug-20 16:39 46.851464 -119.955159 50 7508ft 186kts
01-Aug-20 16:40 46.883569 -119.898736 50 7469ft 177kts
01-Aug-20 16:41 46.914450 -119.844358 50 7472ft 171kts
01-Aug-20 16:42 46.945139 -119.790203 50 7471ft 174kts
01-Aug-20 16:43 46.976009 -119.735609 50 7473ft 174kts
01-Aug-20 16:44 47.006911 -119.680850 50 7477ft 174kts
01-Aug-20 16:45 47.037722 -119.626148 50 7476ft 173kts
01-Aug-20 16:46 47.067975 -119.572332 50 7480ft 170kts
01-Aug-20 16:47 47.098256 -119.518358 50 7477ft 171kts
01-Aug-20 16:48 47.128201 -119.464876 50 7482ft 169kts
01-Aug-20 16:49 47.158433 -119.410775 50 7496ft 172kts
01-Aug-20 16:50 47.188855 -119.356225 50 7495ft 171kts
01-Aug-20 16:51 47.221937 -119.305176 35 7493ft 174kts
01-Aug-20 16:52 47.261636 -119.263805 35 7496ft 175kts
01-Aug-20 16:53 47.301589 -119.222089 35 7494ft 175kts
01-Aug-20 16:54 47.341148 -119.180701 35 7498ft 174kts
01-Aug-20 16:55 47.380859 -119.139078 35 7492ft 175kts
01-Aug-20 16:56 47.420393 -119.097561 35 7493ft 174kts
01-Aug-20 16:57 47.459987 -119.055901 35 7497ft 174kts
01-Aug-20 16:58 47.499530 -119.014217 35 7503ft 174kts
01-Aug-20 16:59 47.539099 -118.972427 35 7501ft 175kts
01-Aug-20 17:00 47.578767 -118.930451 35 7503ft 174kts
01-Aug-20 17:01 47.618378 -118.888457 35 7503ft 175kts
01-Aug-20 17:02 47.657853 -118.846529 35 7511ft 173kts
01-Aug-20 17:03 47.697239 -118.804616 35 7514ft 174kts
01-Aug-20 17:04 47.736853 -118.762377 35 7515ft 176kts
01-Aug-20 17:05 47.776742 -118.719763 36 7516ft 176kts
01-Aug-20 17:06 47.816456 -118.677254 36 7517ft 175kts
01-Aug-20 17:07 47.855476 -118.635411 36 7521ft 171kts
01-Aug-20 17:08 47.894143 -118.593870 36 7515ft 171kts
01-Aug-20 17:09 47.932836 -118.552219 36 7515ft 171kts
01-Aug-20 17:10 47.971462 -118.510530 36 7524ft 171kts
01-Aug-20 17:11 48.010200 -118.468513 36 7504ft 172kts
01-Aug-20 17:12 48.049158 -118.426226 35 7497ft 172kts
01-Aug-20 17:13 48.087981 -118.384015 35 7496ft 172kts
01-Aug-20 17:14 48.126671 -118.341873 35 7491ft 172kts
01-Aug-20 17:15 48.165292 -118.299741 36 7488ft 172kts
01-Aug-20 17:16 48.204415 -118.256965 36 7488ft 173kts
01-Aug-20 17:17 48.243222 -118.214448 36 7421ft 177kts
01-Aug-20 17:18 48.283744 -118.169943 36 6701ft 180kts
01-Aug-20 17:19 48.323807 -118.125874 36 6050ft 177kts
01-Aug-20 17:20 48.362936 -118.082749 36 5572ft 159kts
01-Aug-20 17:21 48.394759 -118.047636 36 5594ft 129kts
01-Aug-20 17:22 48.425990 -118.013098 36 5117ft 143kts
01-Aug-20 17:23 48.458201 -117.977421 36 4695ft 143kts
01-Aug-20 17:24 48.490487 -117.941601 36 4197ft 145kts
01-Aug-20 17:25 48.522890 -117.905581 36 3511ft 137kts
01-Aug-20 17:26 48.554718 -117.880084 18 3422ft 130kts
01-Aug-20 17:27 48.585006 -117.857457 79 3339ft 113kts
01-Aug-20 17:28 48.559848 -117.866073 211 2431ft 103kts
01-Aug-20 17:29 48.541232 -117.886794 231 1873ft 0kts
01-Aug-20 17:30 48.542243 -117.886578 38 1873ft 16kts
01-Aug-20 17:31 48.545608 -117.882666 37 1873ft 11kts
01-Aug-20 17:32 48.546495 -117.882073 220 1873ft 6kts
01-Aug-20 17:33 48.546337 -117.882109 127 1873ft 0kts
01-Aug-20 17:34 48.546337 -117.882109 127 1873ft 0kts

Navigation Log

Ident Type
Flight plan parsing failed, navigation log unavailable